Time;durP1;ratioP1;P1;durP2;ratioP2;P2;SDS_P1;SDS_P2;PMS_P1;PMS_P2;Temp;Humidity;BMP_temperature;BMP_pressure;BME280_temperature;BME280_humidity;BME280_pressure;Samples;Min_cycle;Max_cycle;Signal;HPM_P1;HPM_P2
2023/03/10 00:00:45;;;;;;;3.67;1.03;;;;;;;9.07;84.99;94846.28;5070652;28;20654;-55
2023/03/10 00:03:11;;;;;;;2.47;1.30;;;;;;;9.07;85.04;94846.28;5071801;28;20207;-54
2023/03/10 00:05:38;;;;;;;3.53;1.23;;;;;;;9.14;83.78;94849.06;5070447;28;20210;-55
2023/03/10 00:08:05;;;;;;;1.77;1.20;;;;;;;9.15;84.53;94848.03;5070509;28;20213;-55
2023/03/10 00:10:32;;;;;;;4.20;1.63;;;;;;;9.14;85.05;94846.41;5071143;28;20209;-55
2023/03/10 00:13:00;;;;;;;2.97;1.10;;;;;;;9.17;84.20;94840.78;5070791;28;20199;-54
2023/03/10 00:15:26;;;;;;;2.07;1.17;;;;;;;9.17;84.28;94849.50;5069910;28;20206;-55
2023/03/10 00:17:54;;;;;;;3.27;1.60;;;;;;;9.17;84.44;94862.69;5072008;28;20222;-55
2023/03/10 00:20:21;;;;;;;3.17;1.50;;;;;;;9.14;84.51;94852.47;5070294;28;20230;-55
2023/03/10 00:22:47;;;;;;;2.70;1.60;;;;;;;9.17;83.27;94849.50;5071231;28;20639;-55
2023/03/10 00:25:15;;;;;;;1.10;1.10;;;;;;;9.11;84.90;94849.38;5070301;28;20210;-55
2023/03/10 00:27:42;;;;;;;3.20;1.37;;;;;;;9.11;85.24;94837.00;5070741;28;20250;-53
2023/03/10 00:30:11;;;;;;;2.13;1.50;;;;;;;9.11;84.07;94842.28;5070668;28;20623;-54
2023/03/10 00:32:38;;;;;;;3.93;1.60;;;;;;;9.03;84.35;94833.66;5070082;28;20587;-55
2023/03/10 00:35:06;;;;;;;2.13;1.40;;;;;;;9.00;84.44;94840.91;5070344;28;20211;-55
2023/03/10 00:37:32;;;;;;;2.23;1.27;;;;;;;9.02;84.02;94830.19;5069948;28;20226;-54
2023/03/10 00:39:58;;;;;;;4.13;1.47;;;;;;;9.10;83.62;94829.31;5069993;28;20218;-54
2023/03/10 00:42:25;;;;;;;4.17;1.50;;;;;;;9.09;83.71;94832.94;5069813;28;20203;-54
2023/03/10 00:44:52;;;;;;;3.00;1.50;;;;;;;9.05;84.01;94823.72;5070130;28;20221;-54
2023/03/10 00:47:19;;;;;;;3.73;1.40;;;;;;;9.08;83.82;94826.00;5069911;28;20646;-54
2023/03/10 00:49:47;;;;;;;1.67;1.27;;;;;;;9.07;84.16;94838.38;5069639;28;20238;-54
2023/03/10 00:52:13;;;;;;;3.10;1.63;;;;;;;9.01;84.58;94825.91;5069811;28;20206;-53
2023/03/10 00:54:40;;;;;;;1.70;1.47;;;;;;;9.06;85.04;94831.47;5069809;28;20206;-54
2023/03/10 00:57:07;;;;;;;3.40;1.70;;;;;;;9.23;84.15;94837.41;5070271;28;20308;-54
2023/03/10 00:59:33;;;;;;;3.33;1.70;;;;;;;9.32;83.50;94831.06;5069574;28;20207;-55
2023/03/10 01:02:00;;;;;;;3.27;1.57;;;;;;;9.44;83.38;94827.81;5070235;28;20206;-55
2023/03/10 01:04:28;;;;;;;3.13;1.87;;;;;;;9.61;83.03;94839.00;5071351;28;20210;-54
2023/03/10 01:06:54;;;;;;;4.27;1.60;;;;;;;9.85;82.53;94837.91;5073501;28;20211;-54
2023/03/10 01:09:21;;;;;;;3.80;1.63;;;;;;;10.08;81.33;94845.75;5073345;28;20206;-52
2023/03/10 01:11:47;;;;;;;3.70;1.87;;;;;;;10.48;81.89;94834.69;5073552;28;20658;-54
2023/03/10 01:14:15;;;;;;;3.83;2.43;;;;;;;10.67;81.94;94825.31;5073355;28;20290;-52
2023/03/10 01:16:42;;;;;;;3.17;1.80;;;;;;;10.71;82.66;94824.75;5074062;28;20195;-52
2023/03/10 01:19:08;;;;;;;3.73;2.13;;;;;;;10.95;82.75;94816.44;5073423;28;20206;-54
2023/03/10 01:21:37;;;;;;;2.30;1.63;;;;;;;11.03;82.36;94814.69;5073471;28;20226;-54
2023/03/10 01:24:07;;;;;;;2.87;1.73;;;;;;;11.10;82.27;94812.91;5073605;28;20206;-54
2023/03/10 01:26:34;;;;;;;2.97;1.70;;;;;;;11.08;82.99;94807.84;5073090;28;20214;-53
2023/03/10 01:29:00;;;;;;;2.00;1.70;;;;;;;11.14;82.48;94816.81;5073455;28;21610;-53
2023/03/10 01:31:27;;;;;;;2.80;1.43;;;;;;;11.22;82.85;94811.41;5073307;28;20215;-54
2023/03/10 01:33:53;;;;;;;3.33;1.50;;;;;;;11.32;82.59;94819.81;5073558;28;20263;-53
2023/03/10 01:36:22;;;;;;;2.57;1.33;;;;;;;11.33;82.79;94822.28;5072149;28;20233;-55
2023/03/10 01:38:50;;;;;;;2.33;1.47;;;;;;;11.19;83.88;94817.09;5073054;28;20230;-55
2023/03/10 01:41:17;;;;;;;1.87;1.43;;;;;;;11.35;83.46;94819.44;5072608;28;20221;-55
2023/03/10 01:43:44;;;;;;;1.77;1.20;;;;;;;11.39;83.54;94815.41;5073957;28;20206;-54
2023/03/10 01:46:34;;;;;;;3.70;1.53;;;;;;;11.36;84.01;94823.72;5075118;28;20537;-54
2023/03/10 01:49:03;;;;;;;2.10;1.50;;;;;;;11.44;83.32;94813.00;5074371;28;20332;-55
2023/03/10 01:51:33;;;;;;;3.50;1.17;;;;;;;11.37;83.73;94822.72;5072907;28;20206;-54
2023/03/10 01:54:04;;;;;;;2.00;1.33;;;;;;;11.38;83.03;94819.88;5073264;28;20190;-55
2023/03/10 01:56:31;;;;;;;2.50;1.27;;;;;;;11.41;82.94;94829.25;5073240;28;20213;-54
2023/03/10 01:58:57;;;;;;;1.17;1.03;;;;;;;11.36;83.06;94811.31;5072496;28;20237;-54
2023/03/10 02:01:24;;;;;;;2.13;0.97;;;;;;;11.27;83.67;94827.50;5072531;28;20210;-53
2023/03/10 02:03:54;;;;;;;1.77;0.80;;;;;;;11.41;82.15;94802.78;5072678;28;20251;-53
2023/03/10 02:06:21;;;;;;;0.50;0.50;;;;;;;11.44;82.47;94839.47;5072227;28;20635;-54
2023/03/10 02:08:51;;;;;;;1.17;0.57;;;;;;;11.49;84.01;94856.41;5072162;28;20202;-55
2023/03/10 02:11:22;;;;;;;0.90;0.40;;;;;;;11.28;88.69;94842.38;5072905;28;20207;-53
2023/03/10 02:13:48;;;;;;;1.13;0.40;;;;;;;11.16;90.54;94836.78;5072024;28;20214;-53
2023/03/10 02:16:16;;;;;;;0.87;0.57;;;;;;;10.98;94.01;94823.22;5072221;28;20230;-54
2023/03/10 02:18:44;;;;;;;1.33;0.37;;;;;;;10.75;96.29;94831.31;5072046;28;20226;-54
2023/03/10 02:21:16;;;;;;;1.90;0.37;;;;;;;10.55;99.64;94854.09;5072742;28;20210;-53
2023/03/10 02:23:49;;;;;;;0.30;0.30;;;;;;;10.42;100.00;94844.16;5072049;28;20214;-55
2023/03/10 02:26:25;;;;;;;0.30;0.30;;;;;;;10.39;100.00;94843.72;5072563;28;20198;-55
2023/03/10 02:28:54;;;;;;;0.20;0.20;;;;;;;10.41;100.00;94841.72;5072857;28;20231;-54
2023/03/10 02:31:20;;;;;;;0.30;0.30;;;;;;;10.26;100.00;94833.84;5072692;28;20597;-54
2023/03/10 02:33:47;;;;;;;1.13;0.30;;;;;;;10.25;100.00;94826.06;5071435;28;20213;-53
2023/03/10 02:36:18;;;;;;;0.37;0.30;;;;;;;10.14;100.00;94830.00;5071879;28;20508;-54
2023/03/10 02:38:45;;;;;;;0.97;0.50;;;;;;;10.18;100.00;94833.09;5071300;28;20214;-55
2023/03/10 02:41:17;;;;;;;0.30;0.30;;;;;;;10.09;100.00;94826.28;5074181;28;20256;-55
2023/03/10 02:43:43;;;;;;;0.40;0.40;;;;;;;10.05;100.00;94836.38;5073840;28;20272;-54
2023/03/10 02:46:11;;;;;;;1.60;0.50;;;;;;;9.95;100.00;94836.63;5071821;28;20207;-53
2023/03/10 02:48:39;;;;;;;1.67;0.60;;;;;;;9.95;100.00;94838.50;5071551;28;20239;-54
2023/03/10 02:51:08;;;;;;;0.47;0.27;;;;;;;9.99;100.00;94843.19;5071801;28;20825;-53
2023/03/10 02:53:34;;;;;;;0.73;0.40;;;;;;;9.94;100.00;94839.47;5071491;28;20288;-55
2023/03/10 02:56:01;;;;;;;0.40;0.40;;;;;;;9.85;100.00;94832.63;5071499;28;20294;-54
2023/03/10 02:58:29;;;;;;;0.80;0.40;;;;;;;9.68;100.00;94824.09;5074044;28;20283;-54
2023/03/10 03:00:55;;;;;;;1.80;0.53;;;;;;;9.66;100.00;94812.91;5075994;28;20202;-54
2023/03/10 03:03:23;;;;;;;0.30;0.30;;;;;;;9.63;100.00;94815.09;5075860;28;20202;-56
2023/03/10 03:05:50;;;;;;;0.33;0.33;;;;;;;9.73;100.00;94813.81;5072308;28;20207;-53
2023/03/10 03:08:18;;;;;;;0.40;0.40;;;;;;;9.60;100.00;94799.63;5071660;28;20209;-54
2023/03/10 03:10:45;;;;;;;0.47;0.30;;;;;;;9.58;100.00;94820.91;5071907;28;20630;-54
2023/03/10 03:13:12;;;;;;;0.53;0.53;;;;;;;9.66;100.00;94817.38;5071476;28;20219;-55
2023/03/10 03:15:38;;;;;;;0.53;0.50;;;;;;;9.62;100.00;94822.19;5071369;28;20569;-55
2023/03/10 03:18:05;;;;;;;0.43;0.43;;;;;;;9.59;100.00;94824.38;5071488;28;20226;-55
2023/03/10 03:20:34;;;;;;;0.93;0.40;;;;;;;9.58;100.00;94828.81;5071194;28;20202;-55
2023/03/10 03:23:00;;;;;;;1.23;0.53;;;;;;;9.72;100.00;94828.00;5070545;28;20635;-54
2023/03/10 03:25:29;;;;;;;0.87;0.60;;;;;;;9.68;100.00;94824.09;5071194;28;20508;-54
2023/03/10 03:27:56;;;;;;;1.20;0.60;;;;;;;9.70;100.00;94822.09;5070430;28;20214;-54
2023/03/10 03:30:24;;;;;;;1.17;0.60;;;;;;;9.71;100.00;94821.09;5071139;28;20202;-54
2023/03/10 03:32:52;;;;;;;0.70;0.50;;;;;;;9.67;100.00;94803.97;5071158;28;20203;-53
2023/03/10 03:35:21;;;;;;;0.60;0.53;;;;;;;9.72;100.00;94817.44;5070909;28;20211;-55
2023/03/10 03:37:48;;;;;;;1.53;0.80;;;;;;;9.65;100.00;94798.06;5070547;28;20283;-55
2023/03/10 03:40:16;;;;;;;1.13;0.60;;;;;;;9.70;100.00;94800.19;5070768;28;20210;-54
2023/03/10 03:42:43;;;;;;;0.93;0.60;;;;;;;9.66;100.00;94789.16;5071280;28;20307;-55
2023/03/10 03:45:11;;;;;;;0.70;0.70;;;;;;;9.57;100.00;94774.41;5071146;28;20202;-54
2023/03/10 03:47:37;;;;;;;0.57;0.57;;;;;;;9.79;97.98;94783.22;5073860;28;20297;-55
2023/03/10 03:50:05;;;;;;;1.50;0.60;;;;;;;9.84;96.84;94765.84;5076096;28;20238;-55
2023/03/10 03:52:32;;;;;;;1.23;0.67;;;;;;;9.77;97.71;94769.41;5079933;28;20206;-56
2023/03/10 03:55:00;;;;;;;0.47;0.40;;;;;;;9.80;98.22;94764.56;5075369;28;20226;-55
2023/03/10 03:57:27;;;;;;;0.50;0.40;;;;;;;9.86;95.49;94752.44;5070654;28;20202;-55
2023/03/10 03:59:54;;;;;;;0.50;0.50;;;;;;;9.82;96.98;94744.09;5069869;28;20218;-54
2023/03/10 04:02:21;;;;;;;0.20;0.20;;;;;;;9.92;94.79;94739.31;5070737;28;20235;-54
2023/03/10 04:04:47;;;;;;;1.53;0.77;;;;;;;9.90;94.52;94744.00;5070344;28;20201;-55
2023/03/10 04:07:15;;;;;;;0.30;0.30;;;;;;;9.92;93.19;94728.75;5070214;28;20210;-54
2023/03/10 04:09:42;;;;;;;0.20;0.20;;;;;;;9.88;93.46;94709.03;5071574;28;20210;-56
2023/03/10 04:12:10;;;;;;;0.20;0.20;;;;;;;9.83;96.09;94711.41;5073198;28;20619;-55
2023/03/10 04:14:37;;;;;;;1.33;0.30;;;;;;;9.84;94.07;94702.50;5073286;28;20631;-55
2023/03/10 04:17:04;;;;;;;0.10;0.10;;;;;;;9.84;93.81;94699.88;5072757;28;20643;-52
2023/03/10 04:19:31;;;;;;;0.57;0.20;;;;;;;9.75;93.75;94697.50;5070683;28;20219;-53
2023/03/10 04:21:57;;;;;;;0.53;0.20;;;;;;;9.82;92.38;94683.38;5069735;28;20211;-53
2023/03/10 04:24:24;;;;;;;0.93;0.20;;;;;;;9.72;94.43;94680.22;5070790;28;20214;-54
2023/03/10 04:26:50;;;;;;;0.20;0.20;;;;;;;9.71;93.90;94681.22;5070640;28;20206;-53
2023/03/10 04:29:18;;;;;;;0.20;0.20;;;;;;;9.70;93.60;94663.75;5070808;28;20206;-54
2023/03/10 04:31:44;;;;;;;0.10;0.03;;;;;;;9.66;93.63;94667.78;5070692;28;20259;-55
2023/03/10 04:34:11;;;;;;;0.17;0.17;;;;;;;9.65;93.88;94663.50;5070587;28;20217;-54
2023/03/10 04:36:37;;;;;;;0.20;0.20;;;;;;;9.72;92.66;94661.75;5069909;28;20194;-55
2023/03/10 04:39:04;;;;;;;0.20;0.20;;;;;;;9.81;90.95;94659.81;5072824;28;20230;-54
2023/03/10 04:41:31;;;;;;;0.60;0.20;;;;;;;9.88;90.70;94650.16;5074420;28;20285;-54
2023/03/10 04:43:57;;;;;;;0.60;0.30;;;;;;;9.87;89.90;94636.13;5074643;28;20210;-52
2023/03/10 04:46:25;;;;;;;0.47;0.10;;;;;;;9.85;90.25;94632.84;5074181;28;20210;-55
2023/03/10 04:48:51;;;;;;;0.70;0.20;;;;;;;9.77;90.39;94617.16;5074622;28;20226;-52
2023/03/10 04:51:18;;;;;;;0.30;0.30;;;;;;;9.72;91.48;94619.50;5073664;28;20214;-53
2023/03/10 04:53:44;;;;;;;0.90;0.53;;;;;;;9.73;90.28;94618.53;5074627;28;20202;-54
2023/03/10 04:56:11;;;;;;;0.10;0.10;;;;;;;9.77;88.44;94603.94;5073840;28;20206;-54
2023/03/10 04:58:38;;;;;;;0.30;0.30;;;;;;;9.80;87.74;94603.56;5074143;28;20249;-54
2023/03/10 05:01:08;;;;;;;0.37;0.30;;;;;;;9.73;87.99;94594.78;5073470;28;20207;-54
2023/03/10 05:03:36;;;;;;;0.20;0.20;;;;;;;9.81;85.89;94591.19;5074361;28;20199;-54
2023/03/10 05:06:03;;;;;;;0.33;0.30;;;;;;;9.88;85.03;94584.16;5073766;28;20627;-54
2023/03/10 05:08:30;;;;;;;0.30;0.23;;;;;;;9.87;84.95;94575.41;5074428;28;20195;-55
2023/03/10 05:10:57;;;;;;;0.20;0.20;;;;;;;9.86;85.09;94580.88;5074308;28;20297;-54
2023/03/10 05:13:24;;;;;;;0.27;0.27;;;;;;;9.83;84.57;94568.88;5073868;28;20222;-53
2023/03/10 05:15:50;;;;;;;0.63;0.40;;;;;;;9.86;83.65;94563.22;5073407;28;20615;-53
2023/03/10 05:18:17;;;;;;;1.00;0.40;;;;;;;9.82;84.88;94569.88;5073996;28;20209;-53
2023/03/10 05:20:45;;;;;;;0.73;0.30;;;;;;;9.76;88.41;94569.81;5072371;28;20221;-53
2023/03/10 05:23:11;;;;;;;2.00;1.90;;;;;;;9.71;87.52;94567.72;5072524;28;20214;-54
2023/03/10 05:25:39;;;;;;;1.30;1.20;;;;;;;9.65;87.78;94573.78;5072981;28;20202;-55
2023/03/10 05:28:06;;;;;;;3.30;0.70;;;;;;;9.69;85.70;94556.56;5073979;28;20210;-54
2023/03/10 05:30:33;;;;;;;0.23;0.17;;;;;;;9.71;85.19;94554.53;5081231;28;20634;-55
2023/03/10 05:32:59;;;;;;;0.40;0.40;;;;;;;9.66;85.40;94545.56;5092754;28;20272;-54
2023/03/10 05:35:25;;;;;;;0.40;0.40;;;;;;;9.63;86.97;94535.38;5080881;28;20654;-54
2023/03/10 05:37:53;;;;;;;0.23;0.20;;;;;;;9.52;87.88;94531.44;5083502;28;20230;-54
2023/03/10 05:40:20;;;;;;;0.40;0.40;;;;;;;9.43;91.00;94535.19;5077933;28;20260;-54
2023/03/10 05:42:47;;;;;;;0.40;0.40;;;;;;;9.37;90.58;94541.22;5081549;28;20199;-55
2023/03/10 05:45:13;;;;;;;1.23;0.40;;;;;;;9.27;89.90;94530.16;5073408;28;20347;-56
2023/03/10 05:47:40;;;;;;;0.50;0.27;;;;;;;9.14;92.03;94540.56;5073493;28;20202;-55
2023/03/10 05:50:07;;;;;;;0.40;0.40;;;;;;;9.05;92.81;94531.94;5070692;28;20606;-53
2023/03/10 05:52:36;;;;;;;1.60;0.33;;;;;;;9.05;92.47;94533.75;5073419;28;20206;-53
2023/03/10 05:55:08;;;;;;;0.40;0.40;;;;;;;8.89;95.12;94537.41;5072834;28;20199;-54
2023/03/10 05:57:34;;;;;;;1.03;0.40;;;;;;;8.88;95.19;94541.06;5072988;28;20289;-54
2023/03/10 06:00:00;;;;;;;0.67;0.37;;;;;;;8.80;98.59;94534.06;5072291;28;20226;-54
2023/03/10 06:02:27;;;;;;;1.80;0.57;;;;;;;8.84;97.50;94529.25;5074246;28;20199;-57
2023/03/10 06:04:53;;;;;;;0.30;0.30;;;;;;;8.82;97.91;94545.22;5072381;28;20533;-54
2023/03/10 06:07:20;;;;;;;1.00;0.73;;;;;;;8.82;99.19;94550.50;5071631;28;20690;-55
2023/03/10 06:09:52;;;;;;;0.53;0.43;;;;;;;8.85;99.27;94560.69;5071838;28;20211;-54
2023/03/10 06:12:20;;;;;;;0.70;0.43;;;;;;;8.96;99.14;94585.75;5071987;28;20639;-56
2023/03/10 06:14:47;;;;;;;0.40;0.40;;;;;;;9.32;97.71;94612.97;5071467;28;20199;-55
2023/03/10 06:17:13;;;;;;;0.60;0.30;;;;;;;9.79;94.88;94615.13;5071962;28;20203;-55
2023/03/10 06:19:40;;;;;;;0.27;0.27;;;;;;;10.07;93.71;94612.56;5073601;28;20230;-54
2023/03/10 06:22:06;;;;;;;0.30;0.30;;;;;;;10.62;92.02;94611.81;5072502;28;20210;-53
2023/03/10 06:24:33;;;;;;;0.60;0.60;;;;;;;10.94;88.13;94600.66;5070262;28;20646;-55
2023/03/10 06:26:59;;;;;;;0.30;0.30;;;;;;;10.91;88.46;94593.06;5070671;28;20280;-55
2023/03/10 06:29:27;;;;;;;1.07;0.50;;;;;;;10.81;90.17;94594.44;5072157;28;20210;-54
2023/03/10 06:31:54;;;;;;;0.40;0.40;;;;;;;10.67;91.79;94588.25;5070871;28;20206;-53
2023/03/10 06:34:20;;;;;;;1.43;0.73;;;;;;;10.38;100.00;94577.91;5070173;28;20233;-54
2023/03/10 06:36:46;;;;;;;0.70;0.60;;;;;;;10.19;100.00;94565.34;5075924;28;20195;-54
2023/03/10 06:39:13;;;;;;;0.57;0.57;;;;;;;9.96;100.00;94561.06;5080130;28;20226;-52
2023/03/10 06:41:39;;;;;;;0.40;0.40;;;;;;;10.18;100.00;94566.34;5082574;28;20206;-53
2023/03/10 06:44:06;;;;;;;0.67;0.30;;;;;;;10.14;100.00;94596.75;5073867;28;20203;-53
2023/03/10 06:46:34;;;;;;;1.60;0.80;;;;;;;10.09;100.00;94600.00;5072082;28;20215;-53
2023/03/10 06:49:01;;;;;;;0.50;0.50;;;;;;;9.94;100.00;94613.25;5072372;28;20296;-61
2023/03/10 06:51:27;;;;;;;1.07;0.60;;;;;;;9.81;100.00;94641.34;5074207;28;20210;-55
2023/03/10 06:53:54;;;;;;;1.13;0.57;;;;;;;9.67;100.00;94652.75;5078459;28;20195;-53
2023/03/10 06:56:21;;;;;;;1.23;0.50;;;;;;;9.57;100.00;94668.88;5071723;28;20203;-53
2023/03/10 06:58:48;;;;;;;0.77;0.43;;;;;;;9.45;100.00;94676.47;5071712;28;20211;-53
2023/03/10 07:01:20;;;;;;;0.97;0.50;;;;;;;9.39;100.00;94684.25;5071461;28;20202;-53
2023/03/10 07:03:48;;;;;;;1.17;1.00;;;;;;;9.31;100.00;94690.47;5072750;28;20221;-52
2023/03/10 07:06:15;;;;;;;1.17;0.77;;;;;;;9.15;100.00;94695.91;5071253;28;20210;-55
2023/03/10 07:08:41;;;;;;;2.43;0.70;;;;;;;9.04;100.00;94695.53;5087207;28;20207;-54
2023/03/10 07:11:08;;;;;;;1.53;0.53;;;;;;;9.02;100.00;94685.19;5087745;28;20203;-55
2023/03/10 07:13:35;;;;;;;1.63;0.60;;;;;;;8.81;100.00;94664.81;5076900;28;20213;-53
2023/03/10 07:16:01;;;;;;;1.17;0.60;;;;;;;8.81;100.00;94667.47;5071474;28;20203;-53
2023/03/10 07:18:28;;;;;;;0.60;0.60;;;;;;;8.74;100.00;94668.34;5071662;28;20213;-55
2023/03/10 07:20:57;;;;;;;2.10;0.60;;;;;;;8.71;100.00;94666.91;5070558;28;20609;-55
2023/03/10 07:23:23;;;;;;;0.40;0.40;;;;;;;8.71;100.00;94677.44;5070820;28;20565;-53
2023/03/10 07:25:52;;;;;;;1.60;0.50;;;;;;;8.66;100.00;94685.06;5071147;28;20271;-55
2023/03/10 07:28:18;;;;;;;0.90;0.50;;;;;;;8.67;100.00;94697.25;5070979;28;20545;-54
2023/03/10 07:30:45;;;;;;;0.40;0.40;;;;;;;8.59;100.00;94694.69;5070555;28;20226;-55
2023/03/10 07:33:11;;;;;;;1.80;0.40;;;;;;;8.62;100.00;94699.59;5071544;28;20206;-53
2023/03/10 07:35:38;;;;;;;0.33;0.33;;;;;;;8.59;100.00;94720.19;5070889;28;20217;-53
2023/03/10 07:38:06;;;;;;;0.50;0.50;;;;;;;8.54;100.00;94725.19;5071338;28;20217;-54
2023/03/10 07:40:32;;;;;;;0.80;0.70;;;;;;;8.44;100.00;94734.13;5071198;28;20594;-53
2023/03/10 07:42:59;;;;;;;0.70;0.50;;;;;;;8.44;100.00;94738.59;5071060;28;20545;-53
2023/03/10 07:45:26;;;;;;;0.80;0.50;;;;;;;8.38;100.00;94739.28;5071291;28;20774;-53
2023/03/10 07:47:54;;;;;;;0.50;0.47;;;;;;;8.50;100.00;94753.69;5070715;28;20211;-53
2023/03/10 07:50:21;;;;;;;0.67;0.30;;;;;;;8.51;100.00;94765.84;5070060;28;20244;-55
2023/03/10 07:52:47;;;;;;;0.70;0.57;;;;;;;8.43;100.00;94763.31;5070707;28;20199;-54
2023/03/10 07:55:15;;;;;;;0.80;0.80;;;;;;;8.39;100.00;94767.28;5070599;28;20199;-55
2023/03/10 07:57:42;;;;;;;0.60;0.30;;;;;;;8.30;100.00;94792.00;5070433;28;20213;-55
2023/03/10 08:00:09;;;;;;;1.50;0.70;;;;;;;8.37;100.00;94801.69;5069847;28;20884;-53
2023/03/10 08:02:36;;;;;;;1.33;1.00;;;;;;;8.30;100.00;94811.25;5070917;28;20209;-53
2023/03/10 08:05:02;;;;;;;0.27;0.27;;;;;;;8.23;100.00;94793.66;5071061;28;20206;-54
2023/03/10 08:07:30;;;;;;;2.17;1.97;;;;;;;8.20;100.00;94794.03;5070300;28;20656;-54
2023/03/10 08:09:57;;;;;;;0.40;0.40;;;;;;;8.17;100.00;94795.19;5068966;28;20210;-55
2023/03/10 08:12:25;;;;;;;0.83;0.20;;;;;;;8.06;100.00;94781.59;5069858;28;21560;-52
2023/03/10 08:14:52;;;;;;;0.30;0.30;;;;;;;8.09;100.00;94791.78;5068283;28;20206;-53
2023/03/10 08:17:18;;;;;;;0.37;0.37;;;;;;;8.17;100.00;94799.63;5069555;28;20232;-54
2023/03/10 08:19:45;;;;;;;1.50;0.30;;;;;;;8.27;100.00;94805.50;5070571;28;20710;-53
2023/03/10 08:22:12;;;;;;;0.67;0.20;;;;;;;8.28;100.00;94809.78;5074509;28;20276;-52
2023/03/10 08:24:38;;;;;;;1.03;0.30;;;;;;;8.34;100.00;94806.47;5078973;28;20218;-54
2023/03/10 08:27:05;;;;;;;1.90;0.50;;;;;;;8.45;100.00;94798.19;5077088;28;20202;-53
2023/03/10 08:29:33;;;;;;;0.30;0.30;;;;;;;8.55;100.00;94819.00;5069986;28;20206;-53
2023/03/10 08:31:59;;;;;;;0.80;0.30;;;;;;;8.68;100.00;94806.88;5070812;28;20198;-53
2023/03/10 08:34:26;;;;;;;0.40;0.20;;;;;;;8.76;100.00;94822.66;5069335;28;20631;-52
2023/03/10 08:36:53;;;;;;;0.63;0.37;;;;;;;8.88;100.00;94820.41;5070545;28;20210;-54
2023/03/10 08:39:20;;;;;;;0.30;0.20;;;;;;;8.98;100.00;94826.25;5070178;28;20210;-54
2023/03/10 08:41:48;;;;;;;0.83;0.50;;;;;;;9.09;100.00;94817.09;5073014;28;20206;-53
2023/03/10 08:44:16;;;;;;;0.80;0.50;;;;;;;9.16;100.00;94818.03;5073549;28;20293;-53
2023/03/10 08:46:46;;;;;;;3.10;0.50;;;;;;;9.13;100.00;94828.94;5068458;28;20217;-54
2023/03/10 08:49:13;;;;;;;1.80;0.50;;;;;;;9.13;100.00;94834.22;5068867;28;20690;-53
2023/03/10 08:51:40;;;;;;;1.17;0.30;;;;;;;9.15;100.00;94837.47;5068762;28;20210;-52
2023/03/10 08:54:07;;;;;;;1.57;0.40;;;;;;;9.20;100.00;94829.88;5069175;28;20202;-53
2023/03/10 08:56:34;;;;;;;1.20;0.40;;;;;;;9.26;100.00;94821.22;5068623;28;20203;-53
2023/03/10 08:59:01;;;;;;;1.13;0.60;;;;;;;9.27;100.00;94815.78;5070212;28;20194;-53
2023/03/10 09:01:29;;;;;;;1.13;0.40;;;;;;;9.43;100.00;94804.25;5080639;28;20226;-55
2023/03/10 09:03:57;;;;;;;1.30;0.50;;;;;;;9.66;100.00;94804.16;5080754;28;20955;-53
2023/03/10 09:06:24;;;;;;;1.80;0.40;;;;;;;9.90;100.00;94795.97;5078413;28;20202;-53
2023/03/10 09:08:51;;;;;;;1.00;0.50;;;;;;;10.13;100.00;94788.72;5071086;28;20213;-52
2023/03/10 09:11:21;;;;;;;0.97;0.47;;;;;;;10.14;100.00;94790.41;5069973;28;20204;-52
2023/03/10 09:13:48;;;;;;;1.60;0.70;;;;;;;9.97;100.00;94787.13;5069848;28;20206;-52
2023/03/10 09:16:15;;;;;;;1.63;0.70;;;;;;;10.10;100.00;94780.34;5071157;28;20607;-54
2023/03/10 09:18:41;;;;;;;1.93;0.77;;;;;;;10.16;98.75;94784.94;5070911;28;20207;-53
2023/03/10 09:21:11;;;;;;;1.23;0.67;;;;;;;10.09;98.39;94765.53;5069971;28;20222;-52
2023/03/10 09:23:38;;;;;;;2.50;0.90;;;;;;;10.13;94.32;94757.03;5069794;28;20213;-53
2023/03/10 09:26:05;;;;;;;2.60;0.50;;;;;;;10.19;96.15;94761.63;5069771;28;20210;-52
2023/03/10 09:28:31;;;;;;;1.20;0.60;;;;;;;10.16;96.82;94766.47;5073397;28;20211;-53
2023/03/10 09:30:59;;;;;;;1.07;0.67;;;;;;;10.11;97.24;94755.59;5073579;28;20206;-54
2023/03/10 09:33:26;;;;;;;1.70;0.67;;;;;;;10.02;98.03;94753.03;5073839;28;20202;-52
2023/03/10 09:35:52;;;;;;;3.63;1.00;;;;;;;10.02;99.49;94756.72;5073339;28;20210;-52
2023/03/10 09:38:20;;;;;;;2.10;0.70;;;;;;;10.01;99.64;94753.25;5073080;28;20588;-53
2023/03/10 09:40:51;;;;;;;1.63;0.57;;;;;;;10.07;94.75;94749.03;5073757;28;20233;-52
2023/03/10 09:43:19;;;;;;;1.03;0.40;;;;;;;10.09;97.04;94747.03;5073091;28;20217;-53
2023/03/10 09:45:49;;;;;;;1.07;0.43;;;;;;;10.02;95.63;94753.03;5073046;28;20195;-52
2023/03/10 09:48:26;;;;;;;1.57;0.70;;;;;;;10.08;97.47;94758.59;5072165;28;20207;-53
2023/03/10 09:50:55;;;;;;;0.77;0.57;;;;;;;10.14;97.38;94766.63;5073294;28;20203;-53
2023/03/10 09:53:35;;;;;;;1.60;0.67;;;;;;;10.17;95.13;94765.44;5072461;28;20638;-53
2023/03/10 09:56:04;;;;;;;2.87;0.63;;;;;;;10.08;98.00;94764.72;5072177;28;20218;-53
2023/03/10 09:58:32;;;;;;;0.43;0.43;;;;;;;10.14;96.33;94765.78;5072683;28;20585;-53
2023/03/10 10:00:59;;;;;;;1.83;0.80;;;;;;;10.06;97.14;94765.91;5072526;28;20232;-53
2023/03/10 10:03:31;;;;;;;0.63;0.57;;;;;;;10.00;100.00;94781.47;5072589;28;20240;-54
2023/03/10 10:05:59;;;;;;;1.30;0.70;;;;;;;9.96;99.79;94780.19;5073041;28;20195;-54
2023/03/10 10:08:29;;;;;;;1.33;0.60;;;;;;;9.88;100.00;94782.94;5071618;28;20203;-54
2023/03/10 10:10:57;;;;;;;1.93;0.67;;;;;;;9.79;100.00;94793.78;5071605;28;20214;-54
2023/03/10 10:13:25;;;;;;;0.50;0.40;;;;;;;9.78;100.00;94787.69;5070931;28;20217;-52
2023/03/10 10:15:57;;;;;;;1.03;0.57;;;;;;;9.76;100.00;94776.50;5071442;28;20209;-53
2023/03/10 10:18:30;;;;;;;1.00;0.60;;;;;;;9.80;100.00;94780.41;5070726;28;20202;-53
2023/03/10 10:20:59;;;;;;;1.70;0.77;;;;;;;9.81;100.00;94789.94;5071495;28;20230;-54
2023/03/10 10:23:33;;;;;;;0.87;0.50;;;;;;;9.90;100.00;94796.78;5071423;28;20216;-52
2023/03/10 10:26:01;;;;;;;0.60;0.30;;;;;;;9.77;100.00;94801.91;5070780;28;20878;-54
2023/03/10 10:28:33;;;;;;;0.43;0.43;;;;;;;9.79;100.00;94806.97;5070766;28;20550;-54
2023/03/10 10:31:15;;;;;;;1.03;0.50;;;;;;;9.79;100.00;94799.88;5070875;28;20190;-53
2023/03/10 10:33:53;;;;;;;0.57;0.30;;;;;;;9.89;95.13;94803.06;5071160;28;20201;-54
2023/03/10 10:36:20;;;;;;;0.30;0.30;;;;;;;9.97;96.32;94812.72;5071542;28;20214;-53
2023/03/10 10:38:50;;;;;;;0.10;0.10;;;;;;;10.10;93.27;94823.44;5073484;28;20214;-53
2023/03/10 10:41:19;;;;;;;0.43;0.20;;;;;;;9.94;94.02;94819.19;5075064;28;20222;-54
2023/03/10 10:43:46;;;;;;;0.70;0.40;;;;;;;9.80;98.33;94819.19;5072728;28;20233;-53
2023/03/10 10:46:13;;;;;;;1.07;0.10;;;;;;;9.79;97.08;94826.28;5072583;28;20202;-53
2023/03/10 10:48:44;;;;;;;0.80;0.10;;;;;;;9.92;96.61;94826.44;5072229;28;20261;-52
2023/03/10 10:51:20;;;;;;;0.20;0.10;;;;;;;9.78;96.10;94811.44;5071525;28;20197;-54
2023/03/10 10:53:47;;;;;;;0.40;0.20;;;;;;;9.94;98.70;94818.34;5072610;28;20206;-54
2023/03/10 10:56:16;;;;;;;0.20;0.20;;;;;;;9.97;95.49;94813.53;5072032;28;20542;-53
2023/03/10 10:58:44;;;;;;;0.10;0.10;;;;;;;10.10;93.53;94814.69;5072041;28;20207;-54
2023/03/10 11:01:12;;;;;;;0.20;0.17;;;;;;;10.14;93.07;94816.81;5070754;28;20237;-53
2023/03/10 11:03:40;;;;;;;0.20;0.20;;;;;;;10.23;92.27;94812.25;5071764;28;20206;-53
2023/03/10 11:06:14;;;;;;;0.10;0.10;;;;;;;10.19;91.72;94826.81;5070983;28;20206;-53
2023/03/10 11:08:44;;;;;;;0.80;0.10;;;;;;;10.09;93.42;94832.38;5071836;28;20213;-55
2023/03/10 11:11:20;;;;;;;0.20;0.20;;;;;;;10.08;96.70;94849.22;5071500;28;20210;-53
2023/03/10 11:13:58;;;;;;;0.20;0.10;;;;;;;9.98;92.59;94846.03;5071318;28;20205;-53
2023/03/10 11:16:31;;;;;;;0.50;0.20;;;;;;;10.07;93.61;94838.81;5084543;28;20194;-56
2023/03/10 11:19:00;;;;;;;0.63;0.20;;;;;;;10.11;94.28;94840.09;5091157;28;20209;-55
2023/03/10 11:21:29;;;;;;;0.90;0.43;;;;;;;10.22;94.63;94843.13;5091102;28;20240;-56
2023/03/10 11:24:00;;;;;;;0.20;0.10;;;;;;;10.22;93.25;94837.03;5092021;28;20203;-55
2023/03/10 11:26:41;;;;;;;0.20;0.20;;;;;;;10.28;93.26;94838.91;5090726;28;20205;-55
2023/03/10 11:29:17;;;;;;;0.13;0.10;;;;;;;10.29;93.58;94840.56;5091137;28;20198;-55
2023/03/10 11:31:50;;;;;;;0.20;0.10;;;;;;;10.34;95.77;94846.13;5074433;28;20304;-55
2023/03/10 11:34:28;;;;;;;0.47;0.20;;;;;;;10.20;94.47;94844.31;5072095;28;20206;-54
2023/03/10 11:37:00;;;;;;;0.20;0.20;;;;;;;10.28;92.36;94852.94;5070255;28;20200;-54
2023/03/10 11:39:36;;;;;;;0.77;0.30;;;;;;;10.27;92.65;94847.88;5069357;28;20631;-54